createdAt,value
2022-10-25T00:02:17.069Z,63.40
2022-10-25T00:04:46.744Z,63.32
2022-10-25T00:07:15.303Z,63.43
2022-10-25T00:09:43.876Z,63.25
2022-10-25T00:12:12.214Z,63.33
2022-10-25T00:14:40.677Z,63.35
2022-10-25T00:17:10.905Z,63.14
2022-10-25T00:19:39.416Z,63.10
2022-10-25T00:22:07.814Z,63.08
2022-10-25T00:24:36.199Z,63.17
2022-10-25T00:27:04.541Z,63.10
2022-10-25T00:29:32.933Z,63.02
2022-10-25T00:32:01.280Z,63.01
2022-10-25T00:34:31.181Z,62.60
2022-10-25T00:36:59.563Z,62.92
2022-10-25T00:39:27.921Z,62.82
2022-10-25T00:41:57.298Z,62.68
2022-10-25T00:44:57.796Z,62.61
2022-10-25T00:47:49.659Z,62.66
2022-10-25T00:50:35.804Z,62.60
2022-10-25T00:53:10.193Z,62.32
2022-10-25T00:55:42.842Z,62.25
2022-10-25T00:58:15.844Z,62.59
2022-10-25T01:00:46.368Z,62.41
2022-10-25T01:03:16.308Z,62.17
2022-10-25T01:05:48.004Z,62.28
2022-10-25T01:08:18.468Z,62.17
2022-10-25T01:10:47.664Z,62.19
2022-10-25T01:13:16.549Z,62.13
2022-10-25T01:15:58.122Z,61.85
2022-10-25T01:18:43.395Z,61.71
2022-10-25T01:21:48.723Z,61.75
2022-10-25T01:25:03.992Z,61.62
2022-10-25T01:28:01.167Z,61.69
2022-10-25T01:31:17.726Z,61.69
2022-10-25T01:33:55.321Z,61.73
2022-10-25T01:36:36.282Z,61.52
2022-10-25T01:39:11.854Z,61.67
2022-10-25T01:41:52.501Z,61.60
2022-10-25T01:47:11.160Z,61.62
2022-10-25T01:49:46.673Z,61.48
2022-10-25T01:52:16.191Z,61.47
2022-10-25T01:54:44.529Z,61.49
2022-10-25T01:57:33.133Z,61.39
2022-10-25T02:00:11.257Z,61.41
2022-10-25T02:03:12.084Z,61.28
2022-10-25T02:05:55.237Z,61.26
2022-10-25T02:08:35.975Z,61.27
2022-10-25T02:11:15.288Z,61.23
2022-10-25T02:13:54.752Z,61.15
2022-10-25T02:16:27.086Z,61.15
2022-10-25T02:19:01.864Z,61.30
2022-10-25T02:21:33.849Z,61.23
2022-10-25T02:24:07.932Z,61.10
2022-10-25T02:26:38.313Z,61.15
2022-10-25T02:29:08.219Z,61.11
2022-10-25T02:31:38.823Z,61.01
2022-10-25T02:34:08.590Z,60.87
2022-10-25T02:36:37.340Z,60.66
2022-10-25T02:39:07.974Z,60.49
2022-10-25T02:41:36.372Z,60.51
2022-10-25T02:44:04.807Z,60.47
2022-10-25T02:46:33.228Z,60.46
2022-10-25T02:49:01.594Z,60.36
2022-10-25T02:51:31.329Z,60.16
2022-10-25T02:53:59.879Z,60.15
2022-10-25T02:56:28.437Z,60.04
2022-10-25T02:58:59.263Z,60.03
2022-10-25T03:01:28.116Z,59.94
2022-10-25T03:03:56.910Z,59.74
2022-10-25T03:06:25.261Z,59.73
2022-10-25T03:08:55.006Z,59.61
2022-10-25T03:11:23.396Z,59.53
2022-10-25T03:13:51.746Z,59.38
2022-10-25T03:16:20.111Z,59.21
2022-10-25T03:18:48.467Z,59.33
2022-10-25T03:21:16.862Z,59.12
2022-10-25T03:23:45.205Z,59.08
2022-10-25T03:26:14.950Z,58.79
2022-10-25T03:28:43.329Z,58.75
2022-10-25T03:31:14.613Z,58.53
2022-10-25T03:33:43.155Z,58.47
2022-10-25T03:36:12.236Z,58.21
2022-10-25T03:38:40.583Z,58.10
2022-10-25T03:41:09.016Z,57.80
2022-10-25T03:43:38.775Z,57.65
2022-10-25T03:46:07.525Z,57.78
2022-10-25T03:48:36.011Z,57.65
2022-10-25T03:51:04.378Z,57.55
2022-10-25T03:53:33.552Z,57.36
2022-10-25T03:56:01.900Z,57.19
2022-10-25T03:58:30.349Z,57.09
2022-10-25T04:01:00.942Z,56.94
2022-10-25T04:03:29.530Z,56.95
2022-10-25T04:05:57.887Z,56.76
2022-10-25T04:08:26.328Z,56.67
2022-10-25T04:10:54.670Z,56.61
2022-10-25T04:13:23.094Z,56.64
2022-10-25T04:15:51.438Z,56.70
2022-10-25T04:18:21.317Z,56.52
2022-10-25T04:20:49.648Z,56.46
2022-10-25T04:23:18.006Z,56.24
2022-10-25T04:25:46.405Z,56.40
2022-10-25T04:28:14.789Z,56.27
2022-10-25T04:30:43.838Z,56.28
2022-10-25T04:33:12.202Z,56.20
2022-10-25T04:35:41.937Z,56.14
2022-10-25T04:38:10.858Z,56.16
2022-10-25T04:40:39.191Z,56.18
2022-10-25T04:43:07.548Z,56.02
2022-10-25T04:45:35.886Z,55.99
2022-10-25T04:48:04.271Z,55.94
2022-10-25T04:50:32.630Z,55.61
2022-10-25T04:53:02.365Z,55.37
2022-10-25T04:55:31.470Z,55.01
2022-10-25T04:57:59.918Z,54.80
2022-10-25T05:00:28.643Z,54.79
2022-10-25T05:02:57.296Z,54.66
2022-10-25T05:05:26.977Z,54.81
2022-10-25T05:07:55.372Z,54.47
2022-10-25T05:10:25.160Z,54.45
2022-10-25T05:12:55.898Z,53.45
2022-10-25T05:15:24.280Z,53.53
2022-10-25T05:17:52.664Z,53.06
2022-10-25T05:20:21.011Z,52.09
2022-10-25T05:22:49.783Z,52.20
2022-10-25T05:25:18.424Z,51.86
2022-10-25T05:27:48.158Z,51.51
2022-10-25T05:30:16.552Z,51.61
2022-10-25T05:32:45.138Z,50.78
2022-10-25T05:35:13.837Z,50.82
2022-10-25T05:37:42.163Z,51.14
2022-10-25T05:40:12.331Z,50.98
2022-10-25T05:42:40.721Z,51.20
2022-10-25T05:45:11.623Z,51.29
2022-10-25T05:47:40.062Z,51.45
2022-10-25T05:50:09.275Z,51.48
2022-10-25T05:52:37.611Z,51.27
2022-10-25T05:55:07.178Z,51.03
2022-10-25T05:57:35.652Z,50.75
2022-10-25T06:00:04.583Z,50.57
2022-10-25T06:02:35.511Z,50.94
2022-10-25T06:05:04.076Z,50.98
2022-10-25T06:07:32.730Z,50.32
2022-10-25T06:10:01.113Z,50.60
2022-10-25T06:12:29.466Z,50.59
2022-10-25T06:14:57.832Z,50.54
2022-10-25T06:17:26.182Z,50.89
2022-10-25T06:19:55.938Z,50.67
2022-10-25T06:22:24.350Z,50.95
2022-10-25T06:24:52.688Z,50.99
2022-10-25T06:27:21.048Z,51.19
2022-10-25T06:29:49.414Z,51.40
2022-10-25T06:32:17.762Z,51.37
2022-10-25T06:34:46.150Z,51.69
2022-10-25T06:37:16.164Z,51.70
2022-10-25T06:39:44.538Z,51.62
2022-10-25T06:42:12.930Z,50.70
2022-10-25T06:44:41.291Z,50.94
2022-10-25T06:47:17.562Z,49.73
2022-10-25T06:49:46.857Z,49.77
2022-10-25T06:52:16.574Z,49.49
2022-10-25T06:54:44.916Z,49.04
2022-10-25T06:57:13.326Z,48.92
2022-10-25T06:59:41.890Z,48.76
2022-10-25T07:02:11.037Z,48.47
2022-10-25T07:04:39.488Z,48.59
2022-10-25T07:07:07.857Z,49.05
2022-10-25T07:09:37.606Z,49.22
2022-10-25T07:12:11.454Z,49.39
2022-10-25T07:14:40.953Z,49.08
2022-10-25T07:17:09.316Z,49.20
2022-10-25T07:19:37.731Z,49.57
2022-10-25T07:22:06.153Z,49.56
2022-10-25T07:24:35.974Z,49.62
2022-10-25T07:27:04.431Z,49.46
2022-10-25T07:29:32.866Z,49.49
2022-10-25T07:32:01.295Z,49.38
2022-10-25T07:34:30.179Z,49.02
2022-10-25T07:36:58.494Z,49.20
2022-10-25T07:39:26.940Z,49.19
2022-10-25T07:41:56.835Z,48.91
2022-10-25T07:44:25.303Z,49.10
2022-10-25T07:46:55.593Z,47.73
2022-10-25T07:49:24.010Z,47.92
2022-10-25T07:51:52.448Z,48.20
2022-10-25T07:54:20.896Z,47.59
2022-10-25T07:56:49.279Z,47.78
2022-10-25T07:59:19.071Z,47.36
2022-10-25T08:01:47.551Z,47.28
2022-10-25T08:04:16.021Z,47.12
2022-10-25T08:06:44.474Z,46.91
2022-10-25T08:09:20.359Z,45.89
2022-10-25T08:12:01.593Z,46.22
2022-10-25T08:14:32.978Z,46.76
2022-10-25T08:17:03.488Z,46.18
2022-10-25T08:19:31.916Z,46.53
2022-10-25T08:22:00.334Z,45.63
2022-10-25T08:24:28.832Z,45.84
2022-10-25T08:26:57.237Z,46.28
2022-10-25T08:29:27.414Z,46.12
2022-10-25T08:31:57.313Z,45.96
2022-10-25T08:34:27.458Z,46.02
2022-10-25T08:36:58.037Z,45.56
2022-10-25T08:39:26.476Z,45.11
2022-10-25T08:41:57.784Z,45.27
2022-10-25T08:44:39.662Z,44.45
2022-10-25T08:47:16.630Z,44.84
2022-10-25T08:49:56.345Z,44.44
2022-10-25T08:52:32.685Z,44.41
2022-10-25T08:55:06.042Z,43.90
2022-10-25T08:57:39.373Z,42.63
2022-10-25T09:00:17.478Z,41.97
2022-10-25T09:02:53.664Z,43.03
2022-10-25T09:05:37.838Z,42.83
2022-10-25T09:08:26.597Z,42.68
2022-10-25T09:11:06.242Z,40.55
2022-10-25T09:13:51.105Z,40.47
2022-10-25T09:16:25.688Z,41.02
2022-10-25T09:18:58.256Z,40.84
2022-10-25T09:21:36.097Z,41.10
2022-10-25T09:24:17.474Z,40.85
2022-10-25T09:27:00.369Z,40.53
2022-10-25T09:29:36.695Z,39.66
2022-10-25T09:32:15.536Z,40.23
2022-10-25T09:34:46.262Z,40.62
2022-10-25T09:37:21.610Z,39.63
2022-10-25T09:39:54.604Z,40.78
2022-10-25T09:42:28.942Z,39.25
2022-10-25T09:45:03.128Z,39.50
2022-10-25T09:47:41.752Z,39.66
2022-10-25T09:50:23.325Z,39.32
2022-10-25T09:53:03.472Z,39.28
2022-10-25T09:55:40.084Z,39.60
2022-10-25T09:58:16.819Z,39.05
2022-10-25T10:00:45.340Z,39.19
2022-10-25T10:03:15.073Z,39.27
2022-10-25T10:05:52.353Z,38.78
2022-10-25T10:08:20.805Z,39.42
2022-10-25T10:10:51.519Z,39.30
2022-10-25T10:13:30.075Z,39.49
2022-10-25T10:16:02.129Z,39.59
2022-10-25T10:18:32.618Z,39.78
2022-10-25T10:21:13.780Z,40.20
2022-10-25T10:23:51.599Z,39.89
2022-10-25T10:26:30.671Z,40.09
2022-10-25T10:29:17.502Z,40.35
2022-10-25T10:31:50.015Z,40.01
2022-10-25T10:34:27.593Z,39.44
2022-10-25T10:37:16.668Z,38.94
2022-10-25T10:39:54.197Z,38.67
2022-10-25T10:42:24.920Z,38.72
2022-10-25T10:45:15.914Z,37.81
2022-10-25T10:47:46.757Z,37.34
2022-10-25T10:50:26.773Z,37.93
2022-10-25T10:53:01.095Z,36.06
2022-10-25T10:55:32.936Z,36.13
2022-10-25T10:58:05.352Z,36.54
2022-10-25T11:00:35.508Z,34.83
2022-10-25T11:03:03.981Z,33.33
2022-10-25T11:05:35.156Z,33.50
2022-10-25T11:08:19.524Z,33.50
2022-10-25T11:10:47.967Z,33.46
2022-10-25T11:13:18.828Z,33.94
2022-10-25T11:16:32.053Z,34.52
2022-10-25T11:19:18.994Z,32.79
2022-10-25T11:22:11.477Z,31.93
2022-10-25T11:24:56.146Z,32.53
2022-10-25T11:27:39.194Z,32.80
2022-10-25T11:30:15.287Z,32.69
2022-10-25T11:33:19.255Z,33.06
2022-10-25T11:36:19.759Z,31.66
2022-10-25T11:39:07.527Z,30.85
2022-10-25T11:41:48.695Z,30.51
2022-10-25T11:44:46.894Z,30.87
2022-10-25T11:47:32.183Z,30.03
2022-10-25T11:50:20.009Z,27.41
2022-10-25T11:53:26.994Z,27.10
2022-10-25T11:56:00.880Z,26.36
2022-10-25T11:58:46.480Z,25.62
2022-10-25T12:01:45.140Z,25.85
2022-10-25T12:04:46.704Z,25.57
2022-10-25T12:07:23.493Z,26.07
2022-10-25T12:10:04.270Z,26.28
2022-10-25T12:12:44.016Z,24.64
2022-10-25T12:15:22.630Z,24.34
2022-10-25T12:17:53.739Z,24.58
2022-10-25T12:20:27.455Z,24.15
2022-10-25T12:22:59.584Z,23.51
2022-10-25T12:25:32.707Z,23.74
2022-10-25T12:28:10.751Z,24.21
2022-10-25T12:30:43.617Z,23.93
2022-10-25T12:33:22.926Z,23.69
2022-10-25T12:35:55.354Z,22.69
2022-10-25T12:38:34.004Z,23.04
2022-10-25T12:41:08.827Z,22.73
2022-10-25T12:43:45.072Z,23.19
2022-10-25T12:46:46.461Z,21.53
2022-10-25T12:49:33.513Z,21.09
2022-10-25T12:52:22.894Z,22.05
2022-10-25T12:55:28.229Z,21.88
2022-10-25T12:58:24.978Z,22.01
2022-10-25T13:01:11.878Z,21.96
2022-10-25T13:04:28.398Z,21.20
2022-10-25T13:06:58.028Z,19.66
2022-10-25T13:09:33.519Z,19.68
2022-10-25T13:12:05.400Z,21.02
2022-10-25T13:14:37.833Z,22.42
2022-10-25T13:17:58.108Z,23.18
2022-10-25T13:20:48.368Z,24.19
2022-10-25T13:24:06.479Z,24.94
2022-10-25T13:27:24.893Z,25.74
2022-10-25T13:30:31.995Z,25.95
2022-10-25T13:33:33.792Z,26.86
2022-10-25T13:36:09.417Z,27.09
2022-10-25T13:38:40.210Z,27.85
2022-10-25T13:41:17.710Z,28.01
2022-10-25T13:44:04.674Z,28.35
2022-10-25T13:46:37.584Z,29.30
2022-10-25T13:49:32.939Z,29.14
2022-10-25T13:52:06.240Z,29.38
2022-10-25T13:54:49.761Z,29.88
2022-10-25T13:57:48.501Z,30.06
2022-10-25T14:00:42.049Z,30.41
2022-10-25T14:03:36.213Z,30.86
2022-10-25T14:06:28.051Z,30.88
2022-10-25T14:09:10.652Z,30.86
2022-10-25T14:11:48.452Z,31.32
2022-10-25T14:14:29.586Z,31.56
2022-10-25T14:17:15.377Z,31.67
2022-10-25T14:19:48.493Z,31.77
2022-10-25T14:22:21.999Z,31.98
2022-10-25T14:24:55.612Z,31.93
2022-10-25T14:27:31.190Z,32.24
2022-10-25T14:30:31.425Z,32.37
2022-10-25T14:33:03.779Z,32.66
2022-10-25T14:35:35.152Z,32.80
2022-10-25T14:38:15.462Z,32.96
2022-10-25T14:40:53.335Z,32.91
2022-10-25T14:43:32.811Z,33.06
2022-10-25T14:46:13.341Z,33.13
2022-10-25T14:48:42.513Z,33.18
2022-10-25T14:51:19.836Z,33.42
2022-10-25T14:53:55.762Z,33.42
2022-10-25T14:56:30.471Z,33.38
2022-10-25T14:59:00.358Z,33.45
2022-10-25T15:01:29.395Z,33.66
2022-10-25T15:04:00.657Z,33.83
2022-10-25T15:06:33.399Z,33.92
2022-10-25T15:12:18.688Z,34.10
2022-10-25T15:14:48.357Z,34.23
2022-10-25T15:17:25.953Z,34.27
2022-10-25T15:20:03.538Z,34.28
2022-10-25T15:22:41.848Z,34.42
2022-10-25T15:25:28.970Z,34.60
2022-10-25T15:28:10.860Z,34.68
2022-10-25T15:30:43.351Z,34.78
2022-10-25T15:33:14.584Z,34.80
2022-10-25T15:35:50.166Z,34.58
2022-10-25T15:38:19.810Z,35.15
2022-10-25T15:40:49.844Z,34.98
2022-10-25T15:43:19.688Z,35.46
2022-10-25T15:45:48.198Z,35.51
2022-10-25T15:48:18.973Z,35.46
2022-10-25T15:50:50.486Z,35.55
2022-10-25T15:53:19.573Z,35.72
2022-10-25T15:55:48.825Z,35.70
2022-10-25T15:58:19.249Z,35.76
2022-10-25T16:00:48.151Z,35.78
2022-10-25T16:03:23.964Z,36.37
2022-10-25T16:05:53.874Z,36.24
2022-10-25T16:08:22.371Z,36.59
2022-10-25T16:10:51.055Z,36.53
2022-10-25T16:13:28.358Z,36.70
2022-10-25T16:15:57.053Z,36.74
2022-10-25T16:20:59.365Z,36.99
2022-10-25T16:23:28.371Z,37.14
2022-10-25T16:25:57.857Z,37.31
2022-10-25T16:28:27.619Z,37.75
2022-10-25T16:30:56.204Z,37.47
2022-10-25T16:33:25.163Z,37.63
2022-10-25T16:35:53.776Z,37.65
2022-10-25T16:38:22.178Z,38.11
2022-10-25T16:40:51.264Z,38.19
2022-10-25T16:43:20.184Z,37.98
2022-10-25T16:45:50.081Z,38.11
2022-10-25T16:48:18.700Z,38.60
2022-10-25T16:50:47.703Z,38.75
2022-10-25T16:53:17.448Z,38.59
2022-10-25T16:55:46.424Z,38.72
2022-10-25T16:58:14.831Z,38.83
2022-10-25T17:00:43.578Z,38.71
2022-10-25T17:03:13.827Z,38.82
2022-10-25T17:05:43.004Z,39.16
2022-10-25T17:08:13.988Z,39.47
2022-10-25T17:10:45.307Z,39.55
2022-10-25T17:13:16.579Z,39.28
2022-10-25T17:15:45.093Z,39.40
2022-10-25T17:18:21.671Z,39.86
2022-10-25T17:20:51.404Z,39.69
2022-10-25T17:23:20.685Z,40.22
2022-10-25T17:26:00.182Z,40.15
2022-10-25T17:28:29.339Z,40.23
2022-10-25T17:31:00.166Z,40.23
2022-10-25T17:33:31.805Z,40.40
2022-10-25T17:36:05.289Z,40.45
2022-10-25T17:38:34.451Z,40.74
2022-10-25T17:41:03.694Z,40.64
2022-10-25T17:43:33.596Z,40.71
2022-10-25T17:46:03.513Z,40.90
2022-10-25T17:48:36.343Z,40.94
2022-10-25T17:51:08.320Z,40.84
2022-10-25T17:53:37.540Z,41.20
2022-10-25T17:56:13.351Z,40.96
2022-10-25T17:58:43.862Z,41.41
2022-10-25T18:01:14.998Z,41.14
2022-10-25T18:03:45.971Z,41.55
2022-10-25T18:06:17.945Z,41.37
2022-10-25T18:08:52.218Z,41.48
2022-10-25T18:11:23.822Z,41.66
2022-10-25T18:13:56.020Z,41.95
2022-10-25T18:16:27.371Z,42.08
2022-10-25T18:19:01.636Z,42.35
2022-10-25T18:21:32.183Z,42.11
2022-10-25T18:24:07.452Z,42.20
2022-10-25T18:26:43.076Z,42.29
2022-10-25T18:29:18.513Z,42.44
2022-10-25T18:31:48.299Z,42.52
2022-10-25T18:34:22.928Z,42.69
2022-10-25T18:36:53.519Z,42.96
2022-10-25T18:39:24.839Z,42.90
2022-10-25T18:41:55.695Z,42.95
2022-10-25T18:44:25.336Z,42.96
2022-10-25T18:46:56.460Z,43.11
2022-10-25T18:49:28.677Z,43.15
2022-10-25T18:51:59.539Z,43.18
2022-10-25T18:54:29.463Z,43.14
2022-10-25T18:57:00.681Z,43.36
2022-10-25T18:59:30.210Z,43.35
2022-10-25T19:01:59.887Z,43.51
2022-10-25T19:04:35.305Z,43.48
2022-10-25T19:07:04.790Z,43.54
2022-10-25T19:09:35.257Z,43.72
2022-10-25T19:12:05.580Z,43.43
2022-10-25T19:17:04.934Z,43.74
2022-10-25T19:19:36.729Z,43.83
2022-10-25T19:22:07.070Z,43.71
2022-10-25T19:24:38.811Z,43.88
2022-10-25T19:27:08.733Z,43.73
2022-10-25T19:29:38.171Z,43.98
2022-10-25T19:32:09.734Z,44.02
2022-10-25T19:34:44.019Z,43.98
2022-10-25T19:37:14.453Z,44.09
2022-10-25T19:39:46.215Z,44.06
2022-10-25T19:42:20.555Z,44.14
2022-10-25T19:44:51.959Z,44.20
2022-10-25T19:47:23.944Z,44.09
2022-10-25T19:49:55.850Z,44.26
2022-10-25T19:52:26.832Z,44.35
2022-10-25T19:54:57.321Z,44.43
2022-10-25T19:57:28.122Z,44.39
2022-10-25T19:59:57.991Z,44.54
2022-10-25T20:02:28.767Z,44.49
2022-10-25T20:04:59.849Z,44.63
2022-10-25T20:07:30.370Z,44.66
2022-10-25T20:09:59.558Z,44.88
2022-10-25T20:12:30.752Z,45.05
2022-10-25T20:15:00.674Z,45.10
2022-10-25T20:17:30.170Z,45.28
2022-10-25T20:20:02.390Z,45.35
2022-10-25T20:22:32.618Z,45.50
2022-10-25T20:25:02.410Z,45.45
2022-10-25T20:27:34.310Z,45.65
2022-10-25T20:30:04.295Z,45.76
2022-10-25T20:32:41.103Z,45.91
2022-10-25T20:35:12.041Z,45.93
2022-10-25T20:37:41.799Z,46.17
2022-10-25T20:40:12.323Z,46.26
2022-10-25T20:42:42.267Z,46.12
2022-10-25T20:45:13.070Z,46.36
2022-10-25T20:47:43.243Z,46.42
2022-10-25T20:50:13.986Z,46.60
2022-10-25T20:52:47.984Z,46.48
2022-10-25T20:55:29.661Z,46.55
2022-10-25T20:57:58.228Z,46.58
2022-10-25T21:00:26.651Z,46.72
2022-10-25T21:02:55.230Z,46.66
2022-10-25T21:05:25.088Z,46.87
2022-10-25T21:07:53.515Z,46.81
2022-10-25T21:10:21.917Z,46.83
2022-10-25T21:12:50.418Z,46.98
2022-10-25T21:15:18.986Z,46.94
2022-10-25T21:17:50.616Z,47.13
2022-10-25T21:20:19.217Z,47.07
2022-10-25T21:22:48.989Z,47.10
2022-10-25T21:25:17.859Z,47.13
2022-10-25T21:27:46.555Z,47.14
2022-10-25T21:30:15.199Z,47.19
2022-10-25T21:32:43.582Z,47.27
2022-10-25T21:35:12.099Z,47.44
2022-10-25T21:37:42.347Z,47.37
2022-10-25T21:40:14.307Z,47.44
2022-10-25T21:42:42.961Z,47.42
2022-10-25T21:45:12.442Z,47.41
2022-10-25T21:47:40.822Z,47.44
2022-10-25T21:50:10.471Z,47.67
2022-10-25T21:52:38.862Z,47.62
2022-10-25T21:55:08.823Z,47.72
2022-10-25T21:57:38.663Z,47.65
2022-10-25T22:00:09.571Z,47.79
2022-10-25T22:02:38.053Z,47.94
2022-10-25T22:05:07.362Z,47.99
2022-10-25T22:07:35.725Z,48.03
2022-10-25T22:10:04.212Z,48.15
2022-10-25T22:12:32.584Z,48.22
2022-10-25T22:15:02.273Z,48.29
2022-10-25T22:17:30.606Z,48.33
2022-10-25T22:19:58.978Z,48.57
2022-10-25T22:22:27.588Z,48.70
2022-10-25T22:24:55.947Z,48.69
2022-10-25T22:27:24.379Z,48.70
2022-10-25T22:29:52.776Z,48.65
2022-10-25T22:32:22.914Z,48.77
2022-10-25T22:34:51.303Z,48.71
2022-10-25T22:37:19.658Z,48.93
2022-10-25T22:39:48.036Z,49.17
2022-10-25T22:42:16.513Z,49.13
2022-10-25T22:44:44.884Z,49.18
2022-10-25T22:47:13.240Z,49.33
2022-10-25T22:49:43.068Z,49.32
2022-10-25T22:52:13.792Z,49.34
2022-10-25T22:54:42.161Z,49.49
2022-10-25T22:57:10.578Z,49.65
2022-10-25T22:59:38.916Z,49.68
2022-10-25T23:02:07.275Z,49.65
2022-10-25T23:04:35.781Z,49.53
2022-10-25T23:07:05.626Z,49.59
2022-10-25T23:09:34.007Z,49.46
2022-10-25T23:12:02.359Z,49.51
2022-10-25T23:14:30.692Z,49.52
2022-10-25T23:16:59.053Z,49.43
2022-10-25T23:19:27.397Z,49.48
2022-10-25T23:21:55.762Z,49.53
2022-10-25T23:24:25.520Z,49.65
2022-10-25T23:26:53.882Z,49.50
2022-10-25T23:29:22.193Z,49.60
2022-10-25T23:31:50.564Z,49.70
2022-10-25T23:34:18.937Z,49.67
2022-10-25T23:36:47.428Z,49.49
2022-10-25T23:39:15.763Z,49.46
2022-10-25T23:41:45.589Z,49.67
2022-10-25T23:44:13.942Z,49.51
2022-10-25T23:46:42.301Z,49.40
2022-10-25T23:49:10.637Z,49.50
2022-10-25T23:51:38.974Z,49.68
2022-10-25T23:54:09.582Z,49.62
2022-10-25T23:56:38.206Z,49.58
2022-10-25T23:59:08.135Z,49.57
